createdAt,value
2019-01-09T00:01:13.448Z,1.67
2019-01-09T00:03:41.069Z,1.74
2019-01-09T00:06:08.985Z,1.83
2019-01-09T00:08:36.610Z,1.84
2019-01-09T00:11:04.225Z,1.81
2019-01-09T00:13:32.175Z,1.82
2019-01-09T00:15:59.794Z,1.76
2019-01-09T00:18:27.703Z,1.79
2019-01-09T00:20:55.689Z,1.79
2019-01-09T00:23:23.317Z,1.83
2019-01-09T00:25:50.938Z,1.84
2019-01-09T00:28:18.573Z,1.93
2019-01-09T00:30:46.526Z,1.87
2019-01-09T00:33:14.502Z,1.87
2019-01-09T00:35:42.466Z,1.88
2019-01-09T00:38:10.435Z,1.86
2019-01-09T00:40:38.052Z,1.91
2019-01-09T00:43:05.964Z,1.86
2019-01-09T00:45:33.587Z,1.92
2019-01-09T00:48:01.211Z,1.95
2019-01-09T00:50:29.156Z,1.90
2019-01-09T00:52:57.125Z,1.87
2019-01-09T00:55:24.995Z,1.87
2019-01-09T00:57:52.621Z,1.91
2019-01-09T01:00:20.238Z,1.82
2019-01-09T01:02:48.186Z,1.90
2019-01-09T01:05:16.161Z,1.85
2019-01-09T01:07:43.791Z,1.88
2019-01-09T01:10:11.990Z,1.86
2019-01-09T01:12:39.605Z,1.84
2019-01-09T01:15:07.541Z,1.83
2019-01-09T01:17:35.159Z,1.80
2019-01-09T01:20:03.053Z,1.77
2019-01-09T01:22:30.665Z,1.81
2019-01-09T01:24:58.583Z,1.84
2019-01-09T01:27:26.556Z,1.86
2019-01-09T01:29:54.826Z,1.80
2019-01-09T01:32:22.798Z,1.79
2019-01-09T01:34:50.767Z,1.72
2019-01-09T01:37:18.395Z,1.77
2019-01-09T01:39:46.300Z,1.71
2019-01-09T01:42:14.266Z,1.65
2019-01-09T01:44:42.238Z,1.65
2019-01-09T01:47:10.208Z,1.62
2019-01-09T01:49:38.177Z,1.64
2019-01-09T01:52:05.794Z,1.71
2019-01-09T01:54:33.707Z,1.64
2019-01-09T01:57:01.675Z,1.56
2019-01-09T01:59:29.305Z,1.61
2019-01-09T02:01:57.202Z,1.65
2019-01-09T02:04:25.172Z,1.64
2019-01-09T02:06:53.152Z,1.59
2019-01-09T02:09:21.108Z,1.53
2019-01-09T02:11:49.107Z,1.57
2019-01-09T02:14:17.057Z,1.52
2019-01-09T02:16:44.682Z,1.43
2019-01-09T02:19:12.584Z,1.43
2019-01-09T02:21:40.196Z,1.47
2019-01-09T02:24:08.108Z,1.48
2019-01-09T02:26:36.081Z,1.49
2019-01-09T02:29:04.052Z,1.44
2019-01-09T02:31:31.677Z,1.39
2019-01-09T02:33:59.597Z,1.39
2019-01-09T02:36:27.571Z,1.26
2019-01-09T02:38:55.198Z,1.18
2019-01-09T02:41:23.082Z,1.11
2019-01-09T02:43:50.712Z,1.06
2019-01-09T02:46:18.603Z,1.13
2019-01-09T02:48:48.572Z,1.06
2019-01-09T02:51:15.905Z,1.03
2019-01-09T02:53:43.845Z,1.06
2019-01-09T02:56:11.735Z,1.06
2019-01-09T02:58:39.361Z,1.06
2019-01-09T03:01:07.279Z,1.11
2019-01-09T03:03:35.214Z,1.05
2019-01-09T03:06:03.195Z,1.06
2019-01-09T03:08:30.802Z,1.14
2019-01-09T03:10:58.717Z,1.18
2019-01-09T03:13:26.354Z,1.12
2019-01-09T03:15:53.977Z,1.16
2019-01-09T03:18:21.906Z,1.13
2019-01-09T03:20:49.535Z,1.08
2019-01-09T03:23:17.150Z,1.08
2019-01-09T03:25:44.764Z,1.03
2019-01-09T03:28:12.664Z,1.08
2019-01-09T03:30:40.296Z,1.02
2019-01-09T03:33:08.210Z,1.00
2019-01-09T03:35:36.160Z,0.98
2019-01-09T03:38:04.126Z,1.00
2019-01-09T03:40:31.760Z,1.06
2019-01-09T03:42:59.716Z,1.07
2019-01-09T03:45:27.625Z,0.98
2019-01-09T03:47:55.602Z,1.04
2019-01-09T03:50:23.568Z,1.01
2019-01-09T03:52:51.542Z,1.02
2019-01-09T03:55:19.508Z,0.99
2019-01-09T03:57:47.482Z,1.08
2019-01-09T04:00:15.443Z,1.05
2019-01-09T04:02:43.069Z,1.04
2019-01-09T04:05:10.975Z,1.09
2019-01-09T04:07:38.596Z,1.07
2019-01-09T04:10:06.505Z,1.11
2019-01-09T04:12:34.477Z,1.18
2019-01-09T04:15:02.111Z,1.16
2019-01-09T04:17:30.001Z,1.21
2019-01-09T04:19:57.970Z,1.19
2019-01-09T04:22:25.837Z,1.23
2019-01-09T04:24:53.827Z,1.03
2019-01-09T04:27:21.791Z,1.14
2019-01-09T04:29:49.757Z,1.06
2019-01-09T04:32:17.368Z,0.96
2019-01-09T04:34:45.291Z,0.91
2019-01-09T04:37:13.250Z,0.86
2019-01-09T04:39:40.870Z,0.85
2019-01-09T04:42:08.774Z,0.82
2019-01-09T04:44:36.745Z,0.80
2019-01-09T04:47:04.612Z,0.73
2019-01-09T04:49:32.583Z,0.77
2019-01-09T04:52:00.455Z,0.77
2019-01-09T04:54:28.418Z,0.77
2019-01-09T04:56:56.306Z,0.78
2019-01-09T04:59:24.005Z,0.79
2019-01-09T05:01:51.939Z,0.86
2019-01-09T05:04:19.891Z,0.86
2019-01-09T05:06:47.519Z,0.90
2019-01-09T05:09:15.133Z,0.87
2019-01-09T05:11:42.751Z,0.93
2019-01-09T05:14:10.757Z,0.92
2019-01-09T05:16:38.715Z,0.86
2019-01-09T05:19:06.348Z,0.86
2019-01-09T05:21:34.266Z,0.77
2019-01-09T05:24:02.212Z,0.82
2019-01-09T05:26:29.829Z,0.79
2019-01-09T05:28:57.748Z,0.73
2019-01-09T05:31:25.742Z,0.75
2019-01-09T05:33:53.681Z,0.74
2019-01-09T05:36:21.308Z,0.69
2019-01-09T05:38:48.931Z,0.70
2019-01-09T05:41:16.876Z,0.71
2019-01-09T05:43:44.840Z,0.73
2019-01-09T05:46:12.809Z,0.72
2019-01-09T05:48:40.782Z,0.76
2019-01-09T05:51:08.755Z,0.73
2019-01-09T05:53:36.724Z,0.75
2019-01-09T05:56:04.691Z,0.79
2019-01-09T05:58:32.660Z,0.75
2019-01-09T06:01:00.629Z,0.71
2019-01-09T06:03:28.607Z,0.71
2019-01-09T06:05:56.575Z,0.67
2019-01-09T06:08:24.201Z,0.63
2019-01-09T06:10:52.097Z,0.63
2019-01-09T06:13:19.721Z,0.70
2019-01-09T06:15:47.755Z,0.74
2019-01-09T06:18:15.707Z,0.68
2019-01-09T06:20:43.345Z,0.66
2019-01-09T06:23:10.986Z,0.65
2019-01-09T06:25:38.894Z,0.71
2019-01-09T06:28:06.514Z,0.68
2019-01-09T06:30:34.424Z,0.65
2019-01-09T06:33:02.393Z,0.72
2019-01-09T06:35:30.036Z,0.72
2019-01-09T06:37:57.662Z,0.78
2019-01-09T06:40:25.293Z,0.76
2019-01-09T06:42:53.351Z,0.79
2019-01-09T06:45:20.977Z,0.74
2019-01-09T06:47:48.878Z,0.68
2019-01-09T06:50:17.170Z,0.69
2019-01-09T06:52:44.871Z,0.73
2019-01-09T06:55:12.835Z,0.70
2019-01-09T06:57:40.428Z,0.67
2019-01-09T07:00:08.316Z,0.62
2019-01-09T07:02:36.395Z,0.68
2019-01-09T07:05:04.011Z,0.66
2019-01-09T07:07:36.174Z,0.63
2019-01-09T07:10:02.140Z,0.70
2019-01-09T07:12:30.111Z,0.67
2019-01-09T07:14:57.728Z,0.71
2019-01-09T07:17:25.362Z,0.73
2019-01-09T07:19:52.986Z,0.71
2019-01-09T07:22:20.966Z,0.76
2019-01-09T07:24:48.576Z,0.73
2019-01-09T07:27:16.218Z,0.77
2019-01-09T07:29:44.160Z,0.77
2019-01-09T07:32:11.780Z,0.74
2019-01-09T07:34:39.687Z,0.76
2019-01-09T07:37:07.311Z,0.75
2019-01-09T07:39:35.219Z,0.75
2019-01-09T07:42:02.842Z,0.74
2019-01-09T07:44:30.758Z,0.81
2019-01-09T07:46:58.718Z,0.79
2019-01-09T07:49:26.334Z,0.74
2019-01-09T07:51:53.951Z,0.72
2019-01-09T07:54:21.913Z,0.73
2019-01-09T07:56:49.550Z,0.72
2019-01-09T07:59:17.438Z,0.71
2019-01-09T08:01:45.422Z,0.69
2019-01-09T08:04:13.041Z,0.68
2019-01-09T08:06:40.670Z,0.69
2019-01-09T08:09:08.597Z,0.70
2019-01-09T08:11:36.584Z,0.72
2019-01-09T08:14:04.559Z,0.72
2019-01-09T08:16:32.504Z,0.71
2019-01-09T08:19:00.389Z,0.73
2019-01-09T08:21:28.094Z,0.71
2019-01-09T08:23:55.709Z,0.70
2019-01-09T08:26:23.342Z,0.66
2019-01-09T08:28:51.232Z,0.72
2019-01-09T08:31:19.197Z,0.68
2019-01-09T08:33:47.068Z,0.72
2019-01-09T08:36:15.034Z,0.76
2019-01-09T08:38:42.655Z,0.69
2019-01-09T08:41:10.672Z,0.64
2019-01-09T08:43:38.641Z,0.71
2019-01-09T08:46:06.257Z,0.68
2019-01-09T08:48:34.171Z,0.76
2019-01-09T08:51:01.789Z,0.77
2019-01-09T08:53:29.416Z,0.75
2019-01-09T08:55:57.384Z,0.75
2019-01-09T08:58:25.015Z,0.70
2019-01-09T09:00:52.888Z,0.70
2019-01-09T09:03:20.859Z,0.65
2019-01-09T09:05:48.728Z,0.59
2019-01-09T09:08:16.699Z,0.60
2019-01-09T09:10:44.312Z,0.65
2019-01-09T09:13:11.942Z,0.60
2019-01-09T09:15:39.885Z,0.61
2019-01-09T09:18:07.956Z,0.61
2019-01-09T09:20:35.576Z,0.66
2019-01-09T09:23:03.196Z,0.60
2019-01-09T09:25:31.154Z,0.63
2019-01-09T09:27:59.127Z,0.58
2019-01-09T09:30:26.748Z,0.58
2019-01-09T09:32:54.652Z,0.61
2019-01-09T09:35:22.621Z,0.59
2019-01-09T09:37:50.590Z,0.60
2019-01-09T09:40:18.203Z,0.62
2019-01-09T09:42:46.129Z,0.72
2019-01-09T09:45:14.089Z,0.70
2019-01-09T09:47:41.709Z,0.70
2019-01-09T09:50:09.621Z,0.66
2019-01-09T09:52:37.606Z,0.70
2019-01-09T09:55:12.660Z,0.72
2019-01-09T09:57:34.859Z,0.70
2019-01-09T10:00:02.743Z,0.64
2019-01-09T10:02:30.373Z,0.68
2019-01-09T10:04:58.357Z,0.73
2019-01-09T10:07:26.325Z,0.74
2019-01-09T10:09:53.945Z,0.69
2019-01-09T10:12:21.575Z,0.76
2019-01-09T10:14:49.196Z,0.74
2019-01-09T10:17:17.182Z,0.70
2019-01-09T10:19:45.559Z,0.76
2019-01-09T10:22:13.536Z,0.75
2019-01-09T10:24:41.159Z,0.78
2019-01-09T10:27:09.062Z,0.79
2019-01-09T10:29:37.031Z,0.73
2019-01-09T10:32:04.667Z,0.72
2019-01-09T10:34:32.282Z,0.75
2019-01-09T10:37:00.226Z,0.69
2019-01-09T10:39:28.195Z,0.70
2019-01-09T10:41:56.168Z,0.79
2019-01-09T10:44:24.128Z,0.81
2019-01-09T10:46:52.420Z,0.74
2019-01-09T10:49:20.050Z,0.79
2019-01-09T10:51:48.451Z,0.81
2019-01-09T10:54:16.425Z,0.77
2019-01-09T10:56:44.389Z,0.80
2019-01-09T10:59:12.030Z,0.77
2019-01-09T11:01:39.917Z,0.82
2019-01-09T11:04:07.889Z,0.80
2019-01-09T11:06:35.856Z,0.79
2019-01-09T11:09:04.611Z,0.83
2019-01-09T11:11:32.515Z,0.80
2019-01-09T11:14:00.488Z,0.76
2019-01-09T11:16:28.131Z,0.72
2019-01-09T11:18:55.755Z,0.78
2019-01-09T11:21:23.795Z,0.75
2019-01-09T11:23:51.428Z,0.71
2019-01-09T11:26:19.316Z,0.71
2019-01-09T11:28:47.287Z,0.65
2019-01-09T11:31:15.249Z,0.64
2019-01-09T11:33:43.216Z,0.65
2019-01-09T11:36:10.852Z,0.66
2019-01-09T11:38:38.844Z,0.62
2019-01-09T11:41:06.464Z,0.63
2019-01-09T11:43:34.161Z,0.57
2019-01-09T11:46:02.144Z,0.55
2019-01-09T11:48:29.778Z,0.62
2019-01-09T11:50:57.674Z,0.61
2019-01-09T11:53:25.648Z,0.55
2019-01-09T11:55:53.270Z,0.56
2019-01-09T11:58:21.194Z,0.55
2019-01-09T12:00:49.007Z,0.50
2019-01-09T12:03:16.673Z,0.59
2019-01-09T12:05:44.288Z,0.51
2019-01-09T12:08:12.230Z,0.54
2019-01-09T12:10:39.855Z,0.57
2019-01-09T12:13:07.763Z,0.57
2019-01-09T12:15:35.627Z,0.50
2019-01-09T12:18:03.249Z,0.59
2019-01-09T12:20:30.880Z,0.63
2019-01-09T12:22:58.818Z,0.61
2019-01-09T12:25:26.792Z,0.62
2019-01-09T12:27:54.409Z,0.60
2019-01-09T12:30:22.061Z,0.58
2019-01-09T12:32:49.983Z,0.67
2019-01-09T12:35:17.605Z,0.64
2019-01-09T12:37:45.514Z,0.61
2019-01-09T12:40:13.544Z,0.68
2019-01-09T12:42:41.452Z,0.65
2019-01-09T12:45:09.418Z,0.72
2019-01-09T12:47:37.396Z,0.70
2019-01-09T12:50:05.021Z,0.71
2019-01-09T12:52:32.919Z,0.75
2019-01-09T12:55:00.547Z,0.69
2019-01-09T12:57:28.453Z,0.72
2019-01-09T12:59:56.422Z,0.72
2019-01-09T13:02:24.388Z,0.67
2019-01-09T13:04:52.362Z,0.65
2019-01-09T13:07:20.345Z,0.62
2019-01-09T13:09:48.315Z,0.61
2019-01-09T13:12:16.266Z,0.60
2019-01-09T13:14:44.239Z,0.62
2019-01-09T13:17:12.341Z,0.56
2019-01-09T13:19:40.586Z,0.61
2019-01-09T13:22:08.554Z,0.61
2019-01-09T13:24:36.519Z,0.59
2019-01-09T13:27:04.147Z,0.57
2019-01-09T13:29:31.792Z,0.59
2019-01-09T13:31:59.718Z,0.59
2019-01-09T13:34:27.694Z,0.75
2019-01-09T13:36:55.653Z,0.73
2019-01-09T13:39:30.653Z,0.73
2019-01-09T13:41:52.935Z,0.76
2019-01-09T13:44:20.896Z,0.85
2019-01-09T13:46:48.865Z,0.85
2019-01-09T13:49:16.860Z,0.75
2019-01-09T13:51:44.822Z,0.70
2019-01-09T13:54:12.782Z,0.74
2019-01-09T13:56:40.741Z,0.76
2019-01-09T13:59:08.399Z,0.76
2019-01-09T14:01:36.274Z,0.88
2019-01-09T14:04:03.899Z,0.86
2019-01-09T14:06:31.810Z,0.96
2019-01-09T14:08:59.768Z,0.94
2019-01-09T14:11:27.638Z,0.98
2019-01-09T14:13:55.266Z,0.99
2019-01-09T14:16:23.170Z,1.00
2019-01-09T14:18:55.400Z,1.05
2019-01-09T14:21:20.748Z,1.00
2019-01-09T14:23:48.722Z,1.02
2019-01-09T14:26:16.903Z,1.04
2019-01-09T14:28:44.862Z,1.07
2019-01-09T14:31:12.834Z,1.02
2019-01-09T14:33:40.449Z,1.02
2019-01-09T14:36:08.385Z,1.05
2019-01-09T14:38:36.332Z,1.11
2019-01-09T14:41:03.958Z,1.07
2019-01-09T14:43:31.575Z,1.11
2019-01-09T14:45:59.521Z,1.08
2019-01-09T14:48:27.490Z,1.10
2019-01-09T14:50:55.115Z,1.12
2019-01-09T14:53:23.018Z,1.08
2019-01-09T14:55:51.298Z,1.11
2019-01-09T14:58:19.267Z,1.09
2019-01-09T15:00:46.896Z,1.13
2019-01-09T15:03:14.514Z,1.12
2019-01-09T15:05:42.501Z,1.08
2019-01-09T15:08:10.324Z,1.08
2019-01-09T15:10:37.955Z,1.13
2019-01-09T15:13:05.578Z,1.16
2019-01-09T15:15:33.205Z,1.18
2019-01-09T15:18:01.150Z,1.14
2019-01-09T15:20:29.148Z,1.16
2019-01-09T15:22:56.775Z,1.20
2019-01-09T15:25:24.420Z,1.13
2019-01-09T15:27:52.351Z,1.16
2019-01-09T15:30:20.313Z,1.08
2019-01-09T15:32:48.283Z,1.11
2019-01-09T15:35:15.910Z,1.09
2019-01-09T15:37:43.600Z,1.08
2019-01-09T15:40:11.225Z,1.11
2019-01-09T15:42:38.845Z,1.08
2019-01-09T15:45:06.798Z,1.10
2019-01-09T15:47:34.770Z,1.10
2019-01-09T15:50:02.753Z,1.05
2019-01-09T15:52:30.707Z,1.09
2019-01-09T15:54:58.689Z,1.11
2019-01-09T15:57:26.306Z,1.09
2019-01-09T15:59:53.943Z,1.08
2019-01-09T16:02:21.970Z,1.14
2019-01-09T16:04:49.601Z,1.15
2019-01-09T16:07:17.498Z,1.13
2019-01-09T16:09:45.122Z,1.08
2019-01-09T16:12:13.442Z,1.12
2019-01-09T16:14:41.065Z,1.13
2019-01-09T16:17:08.693Z,1.12
2019-01-09T16:19:36.655Z,1.11
2019-01-09T16:22:04.614Z,1.07
2019-01-09T16:24:32.595Z,1.14
2019-01-09T16:27:00.546Z,1.15
2019-01-09T16:29:28.167Z,1.15
2019-01-09T16:31:55.805Z,1.32
2019-01-09T16:34:23.425Z,1.30
2019-01-09T16:36:51.051Z,1.19
2019-01-09T16:39:18.957Z,1.32
2019-01-09T16:41:46.589Z,1.37
2019-01-09T16:44:14.208Z,1.32
2019-01-09T16:46:42.149Z,1.28
2019-01-09T16:49:09.773Z,1.20
2019-01-09T16:51:37.687Z,1.28
2019-01-09T16:54:05.653Z,1.15
2019-01-09T16:56:34.026Z,1.16
2019-01-09T16:59:01.712Z,1.13
2019-01-09T17:01:29.338Z,1.14
2019-01-09T17:03:56.959Z,1.23
2019-01-09T17:06:24.883Z,1.15
2019-01-09T17:08:52.500Z,1.27
2019-01-09T17:11:20.129Z,1.36
2019-01-09T17:13:48.074Z,1.23
2019-01-09T17:16:16.049Z,1.33
2019-01-09T17:18:44.016Z,1.29
2019-01-09T17:21:11.643Z,1.19
2019-01-09T17:23:39.546Z,1.28
2019-01-09T17:26:07.168Z,1.29
2019-01-09T17:28:35.068Z,1.30
2019-01-09T17:31:02.704Z,1.24
2019-01-09T17:33:30.602Z,1.19
2019-01-09T17:35:58.230Z,1.14
2019-01-09T17:38:26.149Z,1.11
2019-01-09T17:40:54.107Z,1.09
2019-01-09T17:43:21.729Z,1.06
2019-01-09T17:45:49.629Z,1.09
2019-01-09T17:48:17.606Z,1.12
2019-01-09T17:50:45.573Z,1.11
2019-01-09T17:53:13.557Z,1.03
2019-01-09T17:55:41.524Z,0.99
2019-01-09T17:58:09.152Z,1.00
2019-01-09T18:00:36.789Z,1.03
2019-01-09T18:03:04.706Z,0.97
2019-01-09T18:05:32.326Z,1.05
2019-01-09T18:07:59.959Z,1.03
2019-01-09T18:10:27.939Z,0.93
2019-01-09T18:12:56.069Z,0.86
2019-01-09T18:15:24.251Z,0.87
2019-01-09T18:17:52.214Z,0.88
2019-01-09T18:20:20.181Z,0.83
2019-01-09T18:22:47.816Z,0.81
2019-01-09T18:25:15.712Z,0.83
2019-01-09T18:27:43.720Z,0.82
2019-01-09T18:30:11.369Z,0.84
2019-01-09T18:32:39.208Z,0.92
2019-01-09T18:35:07.178Z,0.93
2019-01-09T18:37:34.808Z,0.92
2019-01-09T18:40:04.606Z,0.95
2019-01-09T18:42:32.746Z,0.98
2019-01-09T18:45:00.370Z,0.97
2019-01-09T18:47:28.140Z,0.98
2019-01-09T18:49:55.763Z,1.00
2019-01-09T18:52:23.868Z,1.00
2019-01-09T18:54:51.779Z,1.01
2019-01-09T18:57:19.725Z,1.08
2019-01-09T18:59:47.595Z,1.01
2019-01-09T19:02:15.225Z,1.05
2019-01-09T19:04:42.843Z,1.00
2019-01-09T19:07:10.808Z,1.11
2019-01-09T19:09:38.425Z,1.04
2019-01-09T19:12:06.312Z,1.02
2019-01-09T19:14:34.185Z,1.02
2019-01-09T19:17:02.148Z,1.01
2019-01-09T19:19:29.943Z,1.05
2019-01-09T19:21:57.573Z,1.01
2019-01-09T19:24:25.192Z,1.06
2019-01-09T19:26:53.115Z,1.09
2019-01-09T19:29:21.098Z,1.05
2019-01-09T19:31:49.048Z,1.14
2019-01-09T19:34:16.666Z,1.16
2019-01-09T19:36:44.303Z,1.13
2019-01-09T19:39:11.909Z,1.06
2019-01-09T19:41:39.776Z,1.16
2019-01-09T19:44:07.414Z,1.08
2019-01-09T19:46:35.039Z,1.07
2019-01-09T19:49:03.008Z,1.05
2019-01-09T19:51:30.960Z,1.14
2019-01-09T19:53:58.928Z,1.08
2019-01-09T19:56:26.901Z,1.11
2019-01-09T19:58:55.181Z,1.07
2019-01-09T20:01:23.148Z,1.13
2019-01-09T20:03:50.771Z,1.12
2019-01-09T20:06:18.780Z,1.16
2019-01-09T20:08:46.414Z,1.07
2019-01-09T20:11:14.364Z,1.10
2019-01-09T20:13:42.009Z,1.04
2019-01-09T20:16:09.576Z,1.05
2019-01-09T20:18:37.529Z,1.06
2019-01-09T20:21:05.121Z,1.00
2019-01-09T20:23:33.072Z,1.08
2019-01-09T20:26:00.997Z,0.98
2019-01-09T20:28:29.069Z,1.06
2019-01-09T20:30:57.095Z,1.03
2019-01-09T20:33:25.055Z,1.12
2019-01-09T20:35:53.001Z,1.08
2019-01-09T20:38:20.631Z,1.14
2019-01-09T20:40:48.251Z,1.19
2019-01-09T20:43:15.965Z,1.11
2019-01-09T20:45:43.562Z,1.06
2019-01-09T20:48:11.499Z,1.08
2019-01-09T20:50:39.478Z,1.07
2019-01-09T20:53:07.167Z,1.06
2019-01-09T20:55:35.011Z,1.13
2019-01-09T20:58:02.649Z,1.06
2019-01-09T21:00:30.953Z,1.09
2019-01-09T21:02:58.573Z,1.15
2019-01-09T21:05:26.483Z,1.15
2019-01-09T21:07:54.088Z,1.22
2019-01-09T21:10:22.044Z,1.24
2019-01-09T21:12:49.986Z,1.36
2019-01-09T21:15:17.693Z,1.24
2019-01-09T21:17:45.308Z,1.24
2019-01-09T21:20:13.256Z,1.18
2019-01-09T21:22:41.231Z,1.22
2019-01-09T21:25:09.206Z,1.18
2019-01-09T21:27:42.059Z,1.19
2019-01-09T21:30:06.497Z,1.22
2019-01-09T21:32:34.440Z,1.22
2019-01-09T21:35:02.411Z,1.26
2019-01-09T21:37:30.048Z,1.23
2019-01-09T21:39:57.743Z,1.24
2019-01-09T21:42:25.366Z,1.32
2019-01-09T21:44:52.983Z,1.29
2019-01-09T21:47:20.927Z,1.28
2019-01-09T21:49:48.892Z,1.29
2019-01-09T21:52:16.864Z,1.35
2019-01-09T21:54:44.832Z,1.34
2019-01-09T21:57:12.716Z,1.33
2019-01-09T21:59:40.348Z,1.43
2019-01-09T22:02:07.965Z,1.48
2019-01-09T22:04:35.892Z,1.39
2019-01-09T22:07:03.764Z,1.47
2019-01-09T22:09:31.400Z,1.54
2019-01-09T22:12:02.502Z,1.53
2019-01-09T22:14:28.620Z,1.57
2019-01-09T22:16:56.634Z,1.58
2019-01-09T22:19:24.193Z,1.58
2019-01-09T22:21:51.814Z,1.57
2019-01-09T22:24:19.451Z,1.56
2019-01-09T22:26:47.062Z,1.53
2019-01-09T22:29:14.686Z,1.57
2019-01-09T22:31:42.313Z,1.51
2019-01-09T22:34:09.965Z,1.52
2019-01-09T22:36:37.866Z,1.47
2019-01-09T22:39:05.500Z,1.52
2019-01-09T22:41:33.192Z,1.40
2019-01-09T22:44:01.153Z,1.42
2019-01-09T22:46:30.846Z,1.39
2019-01-09T22:48:58.106Z,1.44
2019-01-09T22:51:25.995Z,1.44
2019-01-09T22:53:53.957Z,1.39
2019-01-09T22:56:21.925Z,1.35
2019-01-09T22:58:49.915Z,1.33
2019-01-09T23:01:17.540Z,1.37
2019-01-09T23:03:45.526Z,1.39
2019-01-09T23:06:13.152Z,1.27
2019-01-09T23:08:40.791Z,1.42
2019-01-09T23:11:08.739Z,1.35
2019-01-09T23:13:36.689Z,1.42
2019-01-09T23:16:04.660Z,1.39
2019-01-09T23:18:32.294Z,1.51
2019-01-09T23:21:00.186Z,1.52
2019-01-09T23:23:27.818Z,1.43
2019-01-09T23:25:55.715Z,1.42
2019-01-09T23:28:23.688Z,1.51
2019-01-09T23:30:51.656Z,1.43
2019-01-09T23:33:19.290Z,1.42
2019-01-09T23:35:47.187Z,1.34
2019-01-09T23:38:14.819Z,1.48
2019-01-09T23:40:42.719Z,1.42
2019-01-09T23:43:10.368Z,1.37
2019-01-09T23:45:37.998Z,1.51
2019-01-09T23:48:05.911Z,1.40
2019-01-09T23:50:33.539Z,1.38
2019-01-09T23:53:01.172Z,1.43
2019-01-09T23:55:29.102Z,1.32
2019-01-09T23:57:56.725Z,1.29
